Time;durP1;ratioP1;P1;durP2;ratioP2;P2;SDS_P1;SDS_P2;PMS_P1;PMS_P2;Temp;Humidity;BMP_temperature;BMP_pressure;BME280_temperature;BME280_humidity;BME280_pressure;Samples;Min_cycle;Max_cycle;Signal;HPM_P1;HPM_P2
2022/01/11 00:00:36;;;;;;;16.88;11.27;;;2.70;99.90;;;;;;5058149;28;20477;-41
2022/01/11 00:03:04;;;;;;;16.85;10.68;;;2.70;99.90;;;;;;5058402;28;20028;-43
2022/01/11 00:05:38;;;;;;;16.88;10.95;;;2.70;99.90;;;;;;5058645;28;20067;-43
2022/01/11 00:08:07;;;;;;;19.63;11.00;;;2.60;99.90;;;;;;5058846;28;20033;-45
2022/01/11 00:10:39;;;;;;;17.13;10.85;;;2.60;99.90;;;;;;5058900;28;20024;-40
2022/01/11 00:13:04;;;;;;;20.85;11.25;;;2.60;99.90;;;;;;5058859;28;20020;-44
2022/01/11 00:15:31;;;;;;;15.05;10.23;;;2.60;99.90;;;;;;5059374;28;20178;-43
2022/01/11 00:17:57;;;;;;;19.65;11.25;;;2.50;99.90;;;;;;5058816;28;20040;-45
2022/01/11 00:20:24;;;;;;;24.90;12.52;;;2.50;99.90;;;;;;5057689;28;20106;-45
2022/01/11 00:25:26;;;;;;;19.17;10.88;;;2.50;99.90;;;;;;5076871;28;20089;-46
2022/01/11 00:27:52;;;;;;;18.60;10.98;;;2.50;99.90;;;;;;5058996;28;20567;-45
2022/01/11 00:30:18;;;;;;;20.33;12.32;;;2.50;99.90;;;;;;5058222;28;20155;-42
2022/01/11 00:32:49;;;;;;;25.08;12.50;;;2.50;99.90;;;;;;5059443;28;20025;-44
2022/01/11 00:35:17;;;;;;;23.38;11.45;;;2.60;99.90;;;;;;5058652;28;20017;-43
2022/01/11 00:37:45;;;;;;;17.65;11.27;;;2.60;99.90;;;;;;5058449;28;20099;-44
2022/01/11 00:40:12;;;;;;;24.98;12.27;;;2.70;99.90;;;;;;5057648;28;20025;-45
2022/01/11 00:42:38;;;;;;;17.60;10.95;;;2.70;99.90;;;;;;5058586;28;20032;-48
2022/01/11 00:45:05;;;;;;;17.73;11.15;;;2.60;99.90;;;;;;5057023;28;20487;-43
2022/01/11 00:47:31;;;;;;;19.15;10.68;;;2.50;99.90;;;;;;5056502;28;20495;-44
2022/01/11 00:49:56;;;;;;;16.42;10.23;;;2.50;99.90;;;;;;5056720;28;20025;-43
2022/01/11 00:52:22;;;;;;;18.88;10.88;;;2.40;99.90;;;;;;5074556;28;20017;-45
2022/01/11 00:54:48;;;;;;;15.73;10.65;;;2.40;99.90;;;;;;5074744;28;20016;-47
2022/01/11 00:57:14;;;;;;;16.35;10.52;;;2.40;99.90;;;;;;5056526;28;20045;-42
2022/01/11 00:59:40;;;;;;;15.20;10.80;;;2.40;99.90;;;;;;5074712;28;20059;-42
2022/01/11 01:02:06;;;;;;;18.35;11.20;;;2.40;99.90;;;;;;5056553;28;20029;-48
2022/01/11 01:04:32;;;;;;;14.57;9.57;;;2.40;99.90;;;;;;5040040;28;20097;-45
2022/01/11 01:06:58;;;;;;;16.88;10.25;;;2.40;99.90;;;;;;5056630;28;20029;-47
2022/01/11 01:09:28;;;;;;;13.98;8.95;;;2.40;99.90;;;;;;5076314;28;20039;-43
2022/01/11 01:11:54;;;;;;;18.33;9.82;;;2.40;99.90;;;;;;5056934;28;20115;-45
2022/01/11 01:14:21;;;;;;;18.23;9.48;;;2.40;99.90;;;;;;5056666;28;20052;-41
2022/01/11 01:16:47;;;;;;;18.27;10.18;;;2.40;99.90;;;;;;5074462;28;20028;-47
2022/01/11 01:19:12;;;;;;;16.58;10.48;;;2.40;99.90;;;;;;5055758;28;20491;-44
2022/01/11 01:21:39;;;;;;;17.00;9.63;;;2.40;99.90;;;;;;5039433;28;20033;-43
2022/01/11 01:24:07;;;;;;;17.83;9.95;;;2.40;99.90;;;;;;5056032;28;20050;-44
2022/01/11 01:26:33;;;;;;;15.50;9.48;;;2.30;99.90;;;;;;5039443;28;20059;-42
2022/01/11 01:29:00;;;;;;;13.57;9.30;;;2.40;99.90;;;;;;5073737;28;20064;-43
2022/01/11 01:31:26;;;;;;;13.48;9.38;;;2.30;99.90;;;;;;5055767;28;20021;-45
2022/01/11 01:33:53;;;;;;;15.02;10.43;;;2.40;99.90;;;;;;5039433;28;20029;-46
2022/01/11 01:36:19;;;;;;;13.55;9.65;;;2.40;99.90;;;;;;5055902;28;20033;-43
2022/01/11 01:38:45;;;;;;;20.85;9.68;;;2.40;99.90;;;;;;5055883;28;20032;-43
2022/01/11 01:41:15;;;;;;;16.13;9.65;;;2.50;99.90;;;;;;5039049;28;20468;-44
2022/01/11 01:43:42;;;;;;;12.80;9.07;;;2.40;99.90;;;;;;5055747;28;20062;-43
2022/01/11 01:46:08;;;;;;;14.23;10.20;;;2.50;99.90;;;;;;5056024;28;20025;-45
2022/01/11 01:48:35;;;;;;;14.80;10.13;;;2.50;99.90;;;;;;5038705;28;20066;-44
2022/01/11 01:51:02;;;;;;;19.08;10.30;;;2.50;99.90;;;;;;5038680;28;20117;-45
2022/01/11 01:53:29;;;;;;;16.58;9.82;;;2.50;99.90;;;;;;5055301;28;20048;-45
2022/01/11 01:55:55;;;;;;;16.48;9.63;;;2.60;99.90;;;;;;5038603;28;20025;-44
2022/01/11 01:58:21;;;;;;;16.60;9.80;;;2.60;99.90;;;;;;5038561;28;20023;-47
2022/01/11 02:00:54;;;;;;;19.95;10.20;;;2.60;99.90;;;;;;5054798;28;20024;-45
2022/01/11 02:03:26;;;;;;;17.25;9.93;;;2.60;99.90;;;;;;5038581;28;20464;-45
2022/01/11 02:05:54;;;;;;;17.98;10.05;;;2.70;99.90;;;;;;5039105;28;20445;-45
2022/01/11 02:08:20;;;;;;;16.65;9.30;;;2.70;99.90;;;;;;5055614;28;20029;-44
2022/01/11 02:10:46;;;;;;;17.20;9.38;;;2.70;99.90;;;;;;5055721;28;20021;-43
2022/01/11 02:13:12;;;;;;;15.43;9.98;;;2.60;99.90;;;;;;5054900;28;20556;-45
2022/01/11 02:15:38;;;;;;;17.27;9.70;;;2.60;99.90;;;;;;5038358;28;20502;-44
2022/01/11 02:18:12;;;;;;;11.93;9.02;;;2.60;99.90;;;;;;5055028;28;20020;-43
2022/01/11 02:20:44;;;;;;;16.48;9.68;;;2.60;99.90;;;;;;5055273;28;20087;-45
2022/01/11 02:23:09;;;;;;;13.38;9.45;;;2.60;99.90;;;;;;5055339;28;20064;-44
2022/01/11 02:25:36;;;;;;;16.58;9.82;;;2.60;99.90;;;;;;5054963;28;20028;-45
2022/01/11 02:28:03;;;;;;;14.38;9.57;;;2.50;99.90;;;;;;5054696;28;20032;-47
2022/01/11 02:30:32;;;;;;;15.93;9.68;;;2.60;99.90;;;;;;5037822;28;20046;-43
2022/01/11 02:32:58;;;;;;;16.65;10.30;;;2.50;99.90;;;;;;5073046;28;20024;-43
2022/01/11 02:35:24;;;;;;;14.52;9.60;;;2.50;99.90;;;;;;5038440;28;20024;-42
2022/01/11 02:37:49;;;;;;;13.35;9.13;;;2.50;99.90;;;;;;5073333;28;20146;-45
2022/01/11 02:40:17;;;;;;;14.90;9.55;;;2.50;99.90;;;;;;5073522;28;20024;-48
2022/01/11 02:42:42;;;;;;;18.77;9.60;;;2.50;99.90;;;;;;5038598;28;20400;-43
2022/01/11 02:45:16;;;;;;;13.43;8.77;;;2.40;99.90;;;;;;5054598;28;20024;-43
2022/01/11 02:47:43;;;;;;;12.13;8.25;;;2.40;99.90;;;;;;5054288;28;20040;-48
2022/01/11 02:50:09;;;;;;;16.95;10.32;;;2.40;99.90;;;;;;5054411;28;20534;-43
2022/01/11 02:52:35;;;;;;;17.35;10.85;;;2.40;99.90;;;;;;5037824;28;20028;-43
2022/01/11 02:55:03;;;;;;;18.73;11.35;;;2.30;99.90;;;;;;5054774;28;20063;-41
2022/01/11 02:57:29;;;;;;;20.38;11.27;;;2.20;99.90;;;;;;5054609;28;20016;-43
2022/01/11 02:59:54;;;;;;;18.38;11.13;;;2.20;99.90;;;;;;5055104;28;20491;-43
2022/01/11 03:02:20;;;;;;;19.30;10.80;;;2.10;99.90;;;;;;5038268;28;20036;-45
2022/01/11 03:04:45;;;;;;;17.08;10.85;;;2.10;99.90;;;;;;5054765;28;20028;-44
2022/01/11 03:07:11;;;;;;;20.00;11.05;;;2.10;99.90;;;;;;5054519;28;20024;-43
2022/01/11 03:12:23;;;;;;;21.58;11.43;;;2.20;99.90;;;;;;5057776;28;20039;-48
2022/01/11 03:14:48;;;;;;;18.75;11.65;;;2.30;99.90;;;;;;5071843;28;20111;-44
2022/01/11 03:17:14;;;;;;;20.95;11.07;;;2.30;99.90;;;;;;5053730;28;20088;-42
2022/01/11 03:19:39;;;;;;;17.25;10.40;;;2.40;99.90;;;;;;5037119;28;20477;-46
2022/01/11 03:22:05;;;;;;;14.25;10.25;;;2.40;99.90;;;;;;5037470;28;20032;-45
2022/01/11 03:24:31;;;;;;;15.63;10.20;;;2.30;99.90;;;;;;5053954;28;20070;-42
2022/01/11 03:26:56;;;;;;;17.13;10.77;;;2.30;99.90;;;;;;5053884;28;20093;-43
2022/01/11 03:29:22;;;;;;;16.25;10.27;;;2.40;99.90;;;;;;5071575;28;20028;-44
2022/01/11 03:31:47;;;;;;;15.23;9.93;;;2.40;99.90;;;;;;5053990;28;20024;-43
2022/01/11 03:34:18;;;;;;;17.23;10.05;;;2.40;99.90;;;;;;5053828;28;20017;-42
2022/01/11 03:36:44;;;;;;;18.00;9.57;;;2.40;99.90;;;;;;5054676;28;20472;-44
2022/01/11 03:39:09;;;;;;;16.50;9.75;;;2.40;99.90;;;;;;5037295;28;20039;-41
2022/01/11 03:41:35;;;;;;;14.75;9.57;;;2.40;99.90;;;;;;5053786;28;20028;-44
2022/01/11 03:44:00;;;;;;;15.73;9.77;;;2.40;99.90;;;;;;5054046;28;20063;-41
2022/01/11 03:46:26;;;;;;;16.90;9.98;;;2.30;99.90;;;;;;5054021;28;20047;-42
2022/01/11 03:48:51;;;;;;;12.95;9.70;;;2.30;99.90;;;;;;5054571;28;20060;-41
2022/01/11 03:51:17;;;;;;;14.00;9.25;;;2.30;99.90;;;;;;5053207;28;20032;-40
2022/01/11 03:53:55;;;;;;;17.25;9.60;;;2.40;99.90;;;;;;5071327;28;20468;-45
2022/01/11 03:56:23;;;;;;;14.63;9.05;;;2.60;99.90;;;;;;5038382;28;20104;-44
2022/01/11 03:58:50;;;;;;;13.70;9.73;;;2.60;99.90;;;;;;5071261;28;20032;-45
2022/01/11 04:01:17;;;;;;;17.67;9.75;;;2.70;99.90;;;;;;5052769;28;20028;-48
2022/01/11 04:03:43;;;;;;;16.00;10.27;;;2.60;99.90;;;;;;5053254;28;20028;-47
2022/01/11 04:06:09;;;;;;;16.80;10.00;;;2.60;99.90;;;;;;5036751;28;20024;-43
2022/01/11 04:08:34;;;;;;;13.23;8.80;;;2.50;99.90;;;;;;5071148;28;20100;-46
2022/01/11 04:11:00;;;;;;;12.80;8.23;;;2.70;99.90;;;;;;5053014;28;20108;-43
2022/01/11 04:13:26;;;;;;;11.85;8.07;;;2.50;99.90;;;;;;5053266;28;20538;-49
2022/01/11 04:15:52;;;;;;;16.63;9.15;;;2.40;99.90;;;;;;5053344;28;20029;-47
2022/01/11 04:18:18;;;;;;;13.70;8.43;;;2.50;99.90;;;;;;5053330;28;20027;-47
2022/01/11 04:20:43;;;;;;;14.85;9.45;;;2.40;99.90;;;;;;5052717;28;20021;-46
2022/01/11 04:23:12;;;;;;;22.98;10.77;;;2.40;99.90;;;;;;5071179;28;20028;-50
2022/01/11 04:25:38;;;;;;;15.75;9.60;;;2.40;99.90;;;;;;5053117;28;20404;-47
2022/01/11 04:28:04;;;;;;;14.20;8.52;;;2.60;99.90;;;;;;5039351;28;20037;-48
2022/01/11 04:30:30;;;;;;;14.02;9.07;;;2.50;99.90;;;;;;5056368;28;20029;-48
2022/01/11 04:32:56;;;;;;;14.05;8.95;;;2.50;99.90;;;;;;5057111;28;20028;-49
2022/01/11 04:35:21;;;;;;;14.60;9.70;;;2.60;99.90;;;;;;5074903;28;20024;-44
2022/01/11 04:37:47;;;;;;;15.80;8.82;;;1.40;99.90;;;;;;5057248;28;20016;-45
2022/01/11 04:40:14;;;;;;;14.15;8.27;;;2.50;99.90;;;;;;5039773;28;20040;-43
2022/01/11 04:42:40;;;;;;;15.93;9.13;;;2.60;99.90;;;;;;5056460;28;20062;-43
2022/01/11 04:45:07;;;;;;;14.07;9.02;;;2.50;99.90;;;;;;5056422;28;20116;-45
2022/01/11 04:47:33;;;;;;;20.63;9.52;;;2.50;99.90;;;;;;5056173;28;20093;-43
2022/01/11 04:49:59;;;;;;;16.65;8.77;;;2.60;99.90;;;;;;5055838;28;20025;-43
2022/01/11 04:52:25;;;;;;;17.90;9.60;;;2.60;99.90;;;;;;5056341;28;20074;-41
2022/01/11 04:54:50;;;;;;;15.25;8.57;;;2.50;99.90;;;;;;5056191;28;20066;-43
2022/01/11 04:57:16;;;;;;;19.52;8.60;;;2.50;99.90;;;;;;5056802;28;20025;-45
2022/01/11 04:59:41;;;;;;;14.25;9.27;;;2.50;99.90;;;;;;5055897;28;20032;-43
2022/01/11 05:02:07;;;;;;;16.08;10.43;;;2.50;99.90;;;;;;5055803;28;20029;-44
2022/01/11 05:04:32;;;;;;;14.52;9.13;;;2.50;99.90;;;;;;5056472;28;20028;-43
2022/01/11 05:06:58;;;;;;;20.63;10.93;;;2.50;99.90;;;;;;5056390;28;20067;-43
2022/01/11 05:09:24;;;;;;;15.40;9.88;;;2.50;99.90;;;;;;5055446;28;20503;-44
2022/01/11 05:11:50;;;;;;;18.13;9.48;;;2.40;99.90;;;;;;5055979;28;20025;-46
2022/01/11 05:14:16;;;;;;;14.23;9.50;;;2.40;99.90;;;;;;5055814;28;20025;-43
2022/01/11 05:16:41;;;;;;;17.52;10.70;;;2.40;99.90;;;;;;5055799;28;20115;-46
2022/01/11 05:19:12;;;;;;;18.33;10.15;;;2.50;99.90;;;;;;5055782;28;20036;-48
2022/01/11 05:21:41;;;;;;;20.45;10.27;;;2.50;99.90;;;;;;5039869;28;20510;-44
2022/01/11 05:24:08;;;;;;;19.55;8.98;;;2.50;99.90;;;;;;5056017;28;20035;-43
2022/01/11 05:26:34;;;;;;;13.15;9.77;;;2.40;99.90;;;;;;5055992;28;20484;-45
2022/01/11 05:29:00;;;;;;;16.63;10.10;;;2.50;99.90;;;;;;5055734;28;20029;-43
2022/01/11 05:31:25;;;;;;;20.65;10.65;;;2.60;99.90;;;;;;5066014;22;20137;-54
2022/01/11 05:33:51;;;;;;;20.30;10.93;;;2.60;99.90;;;;;;5035587;28;20044;-50
2022/01/11 05:36:17;;;;;;;16.73;9.38;;;2.70;99.90;;;;;;5053358;28;20016;-51
2022/01/11 05:38:42;;;;;;;14.95;9.75;;;2.70;99.90;;;;;;5034427;28;20074;-52
2022/01/11 05:41:08;;;;;;;19.17;9.57;;;2.70;99.90;;;;;;5063378;28;20492;-50
2022/01/11 05:43:35;;;;;;;14.32;10.05;;;2.70;99.90;;;;;;5055739;28;20480;-53
2022/01/11 05:46:01;;;;;;;14.20;8.40;;;2.70;99.90;;;;;;5055290;28;20393;-50
2022/01/11 05:48:27;;;;;;;12.95;8.77;;;2.70;99.90;;;;;;5055367;28;20023;-51
2022/01/11 05:50:53;;;;;;;16.13;9.32;;;;;;;;;;5057027;28;20033;-54
2022/01/11 05:53:19;;;;;;;12.30;7.78;;;2.70;99.90;;;;;;5060431;28;20480;-53
2022/01/11 05:55:44;;;;;;;11.60;8.38;;;2.70;99.90;;;;;;5055108;28;20016;-51
2022/01/11 05:58:10;;;;;;;15.18;8.55;;;2.80;99.90;;;;;;5055209;28;20020;-48
2022/01/11 06:00:36;;;;;;;14.95;8.88;;;2.80;99.90;;;;;;5054762;28;20036;-51
2022/01/11 06:03:02;;;;;;;13.15;9.30;;;2.80;99.90;;;;;;5054782;28;20062;-51
2022/01/11 06:05:27;;;;;;;16.42;9.38;;;2.90;99.90;;;;;;5054852;28;20096;-50
2022/01/11 06:07:53;;;;;;;11.60;8.18;;;2.90;99.90;;;;;;5055061;28;20032;-49
2022/01/11 06:10:19;;;;;;;14.90;8.60;;;2.90;99.90;;;;;;5054295;28;20059;-51
2022/01/11 06:12:45;;;;;;;11.13;8.32;;;2.90;99.90;;;;;;5054785;28;20032;-51
2022/01/11 06:15:10;;;;;;;14.10;8.82;;;2.90;99.90;;;;;;5054781;28;20081;-49
2022/01/11 06:17:36;;;;;;;17.25;9.25;;;2.80;99.90;;;;;;5054652;28;20024;-55
2022/01/11 06:20:02;;;;;;;16.77;9.18;;;2.80;99.90;;;;;;5053932;28;20028;-51
2022/01/11 06:22:28;;;;;;;19.23;8.98;;;2.80;99.90;;;;;;5054465;28;20024;-50
2022/01/11 06:24:53;;;;;;;16.17;8.57;;;2.80;99.90;;;;;;5038198;28;20023;-49
2022/01/11 06:27:19;;;;;;;20.08;11.43;;;2.70;99.90;;;;;;5072833;28;20491;-52
2022/01/11 06:29:44;;;;;;;13.98;9.40;;;2.60;99.90;;;;;;5054110;28;20095;-52
2022/01/11 06:32:10;;;;;;;17.20;9.02;;;2.70;99.90;;;;;;5054365;28;20115;-49
2022/01/11 06:34:36;;;;;;;17.40;10.57;;;2.70;99.90;;;;;;5054591;28;20046;-50
2022/01/11 06:37:01;;;;;;;15.27;10.30;;;2.60;99.90;;;;;;5054318;28;20021;-54
2022/01/11 06:39:27;;;;;;;17.42;10.13;;;2.60;99.90;;;;;;5053982;28;20028;-53
2022/01/11 06:41:52;;;;;;;20.80;10.57;;;2.60;99.90;;;;;;5054330;28;20128;-49
2022/01/11 06:44:18;;;;;;;18.83;10.18;;;2.60;99.90;;;;;;5054337;28;20044;-48
2022/01/11 06:46:44;;;;;;;19.40;11.48;;;2.60;99.90;;;;;;5037658;28;20025;-49
2022/01/11 06:49:09;;;;;;;19.02;10.63;;;2.60;99.90;;;;;;5071550;28;20059;-46
2022/01/11 06:51:35;;;;;;;19.92;10.15;;;2.60;99.90;;;;;;5037278;28;20020;-51
2022/01/11 06:54:01;;;;;;;15.20;10.23;;;2.60;99.90;;;;;;5054644;28;20021;-55
2022/01/11 06:56:27;;;;;;;19.92;11.07;;;2.60;99.90;;;;;;5055351;28;20020;-50
2022/01/11 06:58:53;;;;;;;17.95;10.95;;;2.60;99.90;;;;;;5039217;28;20083;-53
2022/01/11 07:01:19;;;;;;;20.40;11.15;;;2.60;99.90;;;;;;5053350;28;20057;-53
2022/01/11 07:03:45;;;;;;;19.50;12.07;;;2.70;99.90;;;;;;5054338;28;20032;-49
2022/01/11 07:06:10;;;;;;;19.42;11.48;;;2.60;99.90;;;;;;5054019;28;20427;-48
2022/01/11 07:08:36;;;;;;;25.73;12.13;;;2.70;99.90;;;;;;5053854;28;20028;-52
2022/01/11 07:11:01;;;;;;;24.25;11.80;;;2.80;99.90;;;;;;5053458;28;20059;-48
2022/01/11 07:13:27;;;;;;;20.27;11.30;;;2.80;99.90;;;;;;5053743;28;20052;-50
2022/01/11 07:15:52;;;;;;;23.80;12.30;;;2.80;99.90;;;;;;5071640;28;20396;-48
2022/01/11 07:18:18;;;;;;;23.25;12.00;;;2.80;99.90;;;;;;5037078;28;20480;-48
2022/01/11 07:20:44;;;;;;;16.92;10.73;;;2.80;99.90;;;;;;5053299;28;20021;-50
2022/01/11 07:23:11;;;;;;;21.15;10.88;;;2.80;99.90;;;;;;5053842;28;20025;-51
2022/01/11 07:25:37;;;;;;;17.13;11.27;;;2.90;99.90;;;;;;5053442;28;20028;-47
2022/01/11 07:28:03;;;;;;;23.45;12.48;;;2.90;99.90;;;;;;5053489;28;20036;-49
2022/01/11 07:30:29;;;;;;;18.10;11.05;;;2.90;99.90;;;;;;5053080;28;20028;-47
2022/01/11 07:32:55;;;;;;;18.88;11.30;;;2.90;99.90;;;;;;5053333;28;20484;-47
2022/01/11 07:35:23;;;;;;;15.20;10.57;;;2.80;99.90;;;;;;5071548;28;20424;-54
2022/01/11 07:37:49;;;;;;;24.08;12.88;;;2.90;99.90;;;;;;5053474;28;20036;-51
2022/01/11 07:40:14;;;;;;;18.80;12.57;;;2.90;99.90;;;;;;5052945;28;21361;-52
2022/01/11 07:42:40;;;;;;;22.25;13.07;;;2.90;99.90;;;;;;5053336;28;20027;-50
2022/01/11 07:45:06;;;;;;;22.13;12.38;;;2.90;99.90;;;;;;5053387;28;20036;-51
2022/01/11 07:47:32;;;;;;;18.73;12.73;;;2.90;99.90;;;;;;5052868;28;20025;-48
2022/01/11 07:49:58;;;;;;;19.48;11.60;;;2.90;99.90;;;;;;5042897;28;20488;-49
2022/01/11 07:52:23;;;;;;;24.00;13.55;;;2.90;99.90;;;;;;5053445;28;20059;-48
2022/01/11 07:54:49;;;;;;;22.40;11.88;;;3.00;99.90;;;;;;5043658;28;20082;-53
2022/01/11 07:57:14;;;;;;;23.45;11.35;;;3.00;99.90;;;;;;5035897;28;20032;-46
2022/01/11 07:59:40;;;;;;;21.40;12.10;;;3.00;99.90;;;;;;5046064;28;20086;-53
2022/01/11 08:02:06;;;;;;;18.20;11.55;;;3.10;99.90;;;;;;5052204;28;20063;-45
2022/01/11 08:04:32;;;;;;;18.15;11.48;;;3.10;99.90;;;;;;5071213;28;20404;-48
2022/01/11 08:07:01;;;;;;;16.85;11.05;;;3.10;99.90;;;;;;5041883;28;20058;-44
2022/01/11 08:09:27;;;;;;;21.80;12.25;;;3.10;99.90;;;;;;5056246;28;20044;-47
2022/01/11 08:11:55;;;;;;;24.63;11.05;;;3.10;99.90;;;;;;5074972;28;20387;-46
2022/01/11 08:14:22;;;;;;;22.42;11.82;;;3.10;99.90;;;;;;5056916;28;20079;-47
2022/01/11 08:16:47;;;;;;;15.63;10.63;;;3.20;99.90;;;;;;5074768;28;20036;-45
2022/01/11 08:19:13;;;;;;;19.05;11.57;;;3.20;99.90;;;;;;5062024;28;20056;-45
2022/01/11 08:21:38;;;;;;;18.70;10.80;;;3.20;99.90;;;;;;5074572;28;20051;-49
2022/01/11 08:24:04;;;;;;;26.05;11.23;;;3.30;99.90;;;;;;5052006;28;20105;-48
2022/01/11 08:26:30;;;;;;;28.95;12.82;;;3.20;99.90;;;;;;5057028;28;20141;-48
2022/01/11 08:28:56;;;;;;;24.98;11.55;;;3.20;99.90;;;;;;5056112;28;20516;-49
2022/01/11 08:31:21;;;;;;;24.73;13.27;;;3.10;99.90;;;;;;5056338;28;20404;-47
2022/01/11 08:33:47;;;;;;;24.90;11.90;;;3.20;99.90;;;;;;5056637;28;20480;-53
2022/01/11 08:36:13;;;;;;;23.75;13.02;;;3.20;99.90;;;;;;5056732;28;20070;-49
2022/01/11 08:38:39;;;;;;;26.48;13.15;;;3.20;99.90;;;;;;5056537;28;20419;-47
2022/01/11 08:41:06;;;;;;;22.83;12.52;;;3.20;99.90;;;;;;5056098;28;20090;-46
2022/01/11 08:43:31;;;;;;;32.28;15.30;;;3.20;99.90;;;;;;5055844;28;20025;-48
2022/01/11 08:45:57;;;;;;;24.33;12.85;;;3.20;99.90;;;;;;5056461;28;20115;-48
2022/01/11 08:48:23;;;;;;;25.83;12.63;;;3.10;99.90;;;;;;5056469;28;20483;-46
2022/01/11 08:50:53;;;;;;;27.60;12.45;;;3.20;99.90;;;;;;5056030;28;20107;-49
2022/01/11 08:53:20;;;;;;;26.73;14.25;;;3.20;99.90;;;;;;5056465;28;20020;-49
2022/01/11 08:55:45;;;;;;;25.15;13.40;;;3.30;99.90;;;;;;5056364;28;20058;-49
2022/01/11 08:58:11;;;;;;;25.75;12.57;;;3.30;99.90;;;;;;5056376;28;20029;-52
2022/01/11 09:00:37;;;;;;;22.67;11.95;;;3.30;99.90;;;;;;5055740;28;20141;-44
2022/01/11 09:03:02;;;;;;;26.90;12.77;;;3.30;99.90;;;;;;5056113;28;20028;-51
2022/01/11 09:05:28;;;;;;;23.80;13.73;;;3.40;99.90;;;;;;5074061;28;20029;-47
2022/01/11 09:07:53;;;;;;;22.08;12.93;;;3.40;99.90;;;;;;5055981;28;20109;-50
2022/01/11 09:10:20;;;;;;;24.25;13.00;;;3.50;99.90;;;;;;5055807;28;20115;-46
2022/01/11 09:12:46;;;;;;;23.38;12.25;;;3.60;99.90;;;;;;5055148;28;20107;-49
2022/01/11 09:15:13;;;;;;;24.58;12.70;;;3.70;99.90;;;;;;5073152;28;20024;-48
2022/01/11 09:17:38;;;;;;;101.53;50.95;;;3.70;99.90;;;;;;5055674;28;20021;-48
2022/01/11 09:20:09;;;;;;;28.85;13.45;;;3.70;99.90;;;;;;5055488;28;20028;-50
2022/01/11 09:22:34;;;;;;;26.77;12.43;;;3.70;99.90;;;;;;5055750;28;20115;-46
2022/01/11 09:25:00;;;;;;;21.30;12.10;;;3.70;99.90;;;;;;5055644;28;20056;-47
2022/01/11 09:27:26;;;;;;;21.48;13.43;;;3.70;99.90;;;;;;5055694;28;20468;-49
2022/01/11 09:29:51;;;;;;;23.58;12.18;;;3.80;99.90;;;;;;5055347;28;20025;-51
2022/01/11 09:32:17;;;;;;;18.95;12.20;;;3.70;99.90;;;;;;5055525;28;20110;-51
2022/01/11 09:34:43;;;;;;;21.65;12.48;;;3.70;99.90;;;;;;5055751;28;20036;-48
2022/01/11 09:37:10;;;;;;;22.05;12.10;;;3.60;99.90;;;;;;5055641;28;20020;-52
2022/01/11 09:39:36;;;;;;;23.67;11.70;;;3.60;99.90;;;;;;5055137;28;20078;-51
2022/01/11 09:42:05;;;;;;;22.25;12.88;;;3.60;99.90;;;;;;5054906;28;20639;-50
2022/01/11 09:44:32;;;;;;;21.77;12.27;;;3.70;99.90;;;;;;5055051;28;20035;-49
2022/01/11 09:46:58;;;;;;;27.38;12.73;;;3.70;99.90;;;;;;5055152;28;20514;-48
2022/01/11 09:49:24;;;;;;;29.88;12.70;;;3.80;99.90;;;;;;5054786;28;20029;-49
2022/01/11 09:51:51;;;;;;;20.60;12.13;;;3.80;99.90;;;;;;5055082;28;20017;-48
2022/01/11 09:54:20;;;;;;;23.20;12.88;;;3.80;99.90;;;;;;5055116;28;20024;-48
2022/01/11 09:56:46;;;;;;;23.83;13.43;;;3.90;99.90;;;;;;5034239;28;20053;-53
2022/01/11 09:59:12;;;;;;;21.05;12.38;;;4.00;99.90;;;;;;5049007;28;20170;-47
2022/01/11 10:01:38;;;;;;;25.88;13.90;;;4.10;99.90;;;;;;5035159;28;20071;-48
2022/01/11 10:04:12;;;;;;;24.10;12.65;;;4.10;99.90;;;;;;5041108;28;20488;-48
2022/01/11 10:06:42;;;;;;;26.00;13.57;;;4.10;99.90;;;;;;5054997;28;20028;-51
2022/01/11 10:09:12;;;;;;;28.35;14.32;;;4.00;99.90;;;;;;5053224;28;20036;-47
2022/01/11 10:11:41;;;;;;;21.17;12.98;;;4.10;99.90;;;;;;5053853;28;20486;-49
2022/01/11 10:14:20;;;;;;;20.20;12.70;;;4.10;99.90;;;;;;5053891;28;20056;-48
2022/01/11 10:16:47;;;;;;;23.35;14.32;;;4.20;99.90;;;;;;5071969;28;20021;-50
2022/01/11 10:19:22;;;;;;;19.95;13.55;;;4.30;99.90;;;;;;5054353;28;20115;-47
2022/01/11 10:21:50;;;;;;;18.80;12.85;;;4.30;99.90;;;;;;5054848;28;20043;-47
2022/01/11 10:24:32;;;;;;;23.80;13.48;;;4.40;99.90;;;;;;5055192;28;20411;-46
2022/01/11 10:27:01;;;;;;;25.70;13.10;;;4.40;99.90;;;;;;5055058;28;20021;-49
2022/01/11 10:29:30;;;;;;;18.35;12.45;;;4.40;99.90;;;;;;5053612;28;20060;-47
2022/01/11 10:32:01;;;;;;;25.05;13.80;;;4.50;99.90;;;;;;5053708;28;20020;-47
2022/01/11 10:34:33;;;;;;;21.52;12.38;;;4.50;99.90;;;;;;5054189;28;20028;-47
2022/01/11 10:37:01;;;;;;;27.85;14.88;;;4.50;99.90;;;;;;5054225;28;20038;-48
2022/01/11 10:39:36;;;;;;;25.23;13.55;;;4.40;99.90;;;;;;5053853;28;20063;-48
2022/01/11 10:42:03;;;;;;;22.52;12.95;;;4.50;99.90;;;;;;5052722;28;20036;-46
2022/01/11 10:44:47;;;;;;;22.35;13.77;;;4.50;99.90;;;;;;5067357;28;20123;-46
2022/01/11 10:47:43;;;;;;;20.42;12.10;;;4.50;99.90;;;;;;5039548;28;20025;-45
2022/01/11 10:50:19;;;;;;;20.38;12.95;;;4.60;99.90;;;;;;5033665;28;20035;-47
2022/01/11 10:52:47;;;;;;;31.20;15.20;;;4.60;99.90;;;;;;5040394;28;20031;-45
2022/01/11 10:55:16;;;;;;;23.40;13.23;;;4.60;99.90;;;;;;5042608;28;20045;-48
2022/01/11 10:57:44;;;;;;;19.42;13.05;;;4.70;99.90;;;;;;5053463;28;20023;-48
2022/01/11 11:00:35;;;;;;;23.65;14.77;;;4.70;99.90;;;;;;5051705;28;20492;-52
2022/01/11 11:03:13;;;;;;;21.88;14.25;;;4.70;99.90;;;;;;5050645;28;20028;-54
2022/01/11 11:05:57;;;;;;;34.60;21.13;;;4.70;99.90;;;;;;5064190;28;20028;-56
2022/01/11 11:08:36;;;;;;;111.80;50.10;;;4.70;99.90;;;;;;5015941;28;20036;-52
2022/01/11 11:11:20;;;;;;;24.58;14.75;;;4.70;99.90;;;;;;5052826;28;20439;-53
2022/01/11 11:13:48;;;;;;;22.08;13.50;;;4.70;99.90;;;;;;5051638;28;20377;-55
2022/01/11 11:16:37;;;;;;;27.88;14.25;;;4.70;99.90;;;;;;5052946;28;20024;-49
2022/01/11 11:19:04;;;;;;;23.98;14.00;;;4.80;99.90;;;;;;5060165;28;20017;-52
2022/01/11 11:21:36;;;;;;;24.88;13.30;;;4.90;99.90;;;;;;5052172;28;20081;-51
2022/01/11 11:24:06;;;;;;;25.17;14.48;;;5.00;99.90;;;;;;5034950;28;20507;-52
2022/01/11 11:26:38;;;;;;;21.27;14.05;;;5.10;99.90;;;;;;5038397;28;20147;-50
2022/01/11 11:29:05;;;;;;;27.13;14.02;;;5.10;99.90;;;;;;5045064;28;20016;-54
2022/01/11 11:34:08;;;;;;;23.25;14.18;;;5.20;99.90;;;;;;5096742;22;20057;-48
2022/01/11 11:36:36;;;;;;;28.95;14.88;;;5.20;99.90;;;;;;5064942;28;20036;-49
2022/01/11 11:39:13;;;;;;;26.55;13.43;;;5.20;99.90;;;;;;5055974;28;20447;-50
2022/01/11 11:41:46;;;;;;;21.50;12.95;;;5.20;99.90;;;;;;5073162;28;20024;-48
2022/01/11 11:44:14;;;;;;;30.15;13.60;;;5.40;99.90;;;;;;5046487;28;20033;-44
2022/01/11 11:47:02;;;;;;;20.98;12.88;;;5.40;99.90;;;;;;5042139;28;20063;-49
2022/01/11 11:49:46;;;;;;;26.08;16.13;;;5.60;99.90;;;;;;5038505;28;20044;-51
2022/01/11 11:52:22;;;;;;;25.25;13.15;;;5.50;99.90;;;;;;5034396;28;20056;-46
2022/01/11 11:54:56;;;;;;;23.42;14.27;;;5.40;99.90;;;;;;5066004;28;20028;-51
2022/01/11 11:57:24;;;;;;;25.58;13.10;;;5.30;99.90;;;;;;5052507;28;20029;-46
2022/01/11 11:59:56;;;;;;;20.95;12.48;;;5.30;99.90;;;;;;5052280;28;20029;-47
2022/01/11 12:02:57;;;;;;;26.73;11.82;;;5.30;99.90;;;;;;5051196;28;20361;-51
2022/01/11 12:05:39;;;;;;;21.08;13.23;;;5.40;99.90;;;;;;5051204;28;20104;-45
2022/01/11 12:08:37;;;;;;;27.77;14.85;;;5.50;99.90;;;;;;5051572;28;20025;-45
2022/01/11 12:11:10;;;;;;;30.40;11.93;;;5.50;99.90;;;;;;5044868;28;20127;-49
2022/01/11 12:13:48;;;;;;;18.27;12.20;;;5.50;99.90;;;;;;5049951;28;20103;-47
2022/01/11 12:16:39;;;;;;;28.95;13.45;;;5.50;99.90;;;;;;5052147;28;20036;-48
2022/01/11 12:19:08;;;;;;;26.35;11.90;;;5.50;99.90;;;;;;5051051;28;20021;-44
2022/01/11 12:22:06;;;;;;;22.75;12.32;;;5.60;99.90;;;;;;5033327;28;20079;-45
2022/01/11 12:24:37;;;;;;;19.88;11.40;;;5.60;99.90;;;;;;4980722;28;20029;-45
2022/01/11 12:27:03;;;;;;;20.80;12.07;;;5.60;99.90;;;;;;5033250;28;20021;-48
2022/01/11 12:29:28;;;;;;;18.02;10.77;;;5.60;99.90;;;;;;5032732;28;20036;-46
2022/01/11 12:32:05;;;;;;;21.90;11.88;;;5.60;99.90;;;;;;5033208;28;20028;-46
2022/01/11 12:34:45;;;;;;;20.60;13.48;;;5.60;99.90;;;;;;5033062;28;20025;-48
2022/01/11 12:37:28;;;;;;;27.90;13.70;;;5.50;99.90;;;;;;5051131;28;20397;-48
2022/01/11 12:40:04;;;;;;;20.75;12.73;;;5.50;99.90;;;;;;5033129;28;20028;-46
2022/01/11 12:42:30;;;;;;;23.50;11.77;;;5.50;99.90;;;;;;5033192;28;20514;-44
2022/01/11 12:47:43;;;;;;;21.90;10.95;;;5.50;99.90;;;;;;5051368;28;20024;-45
2022/01/11 12:50:14;;;;;;;18.70;11.52;;;5.60;99.90;;;;;;5020313;28;20630;-48
2022/01/11 12:52:40;;;;;;;19.65;11.02;;;5.60;99.90;;;;;;5036884;28;20071;-48
2022/01/11 12:55:07;;;;;;;19.33;12.32;;;5.60;99.90;;;;;;5037245;28;20017;-47